sensor_id;sensor_type;location;lat;lon;timestamp;P1;durP1;ratioP1;P2;durP2;ratioP2
27893;SDS011;15240;50.812;4.792;2023-05-10T00:01:08;28.83;;;13.33;;
27893;SDS011;15240;50.812;4.792;2023-05-10T00:03:35;20.90;;;12.33;;
27893;SDS011;15240;50.812;4.792;2023-05-10T00:06:01;24.57;;;13.33;;
27893;SDS011;15240;50.812;4.792;2023-05-10T00:08:27;25.20;;;13.30;;
27893;SDS011;15240;50.812;4.792;2023-05-10T00:10:53;26.87;;;14.03;;
27893;SDS011;15240;50.812;4.792;2023-05-10T00:13:19;23.97;;;14.00;;
27893;SDS011;15240;50.812;4.792;2023-05-10T00:15:45;23.47;;;14.03;;
27893;SDS011;15240;50.812;4.792;2023-05-10T00:18:12;26.37;;;14.27;;
27893;SDS011;15240;50.812;4.792;2023-05-10T00:20:38;25.70;;;14.43;;
27893;SDS011;15240;50.812;4.792;2023-05-10T00:23:04;25.93;;;14.63;;
27893;SDS011;15240;50.812;4.792;2023-05-10T00:25:30;30.90;;;15.50;;
27893;SDS011;15240;50.812;4.792;2023-05-10T00:27:56;27.53;;;15.10;;
27893;SDS011;15240;50.812;4.792;2023-05-10T00:30:23;26.77;;;15.13;;
27893;SDS011;15240;50.812;4.792;2023-05-10T00:32:49;26.90;;;15.07;;
27893;SDS011;15240;50.812;4.792;2023-05-10T00:35:16;28.73;;;15.30;;
27893;SDS011;15240;50.812;4.792;2023-05-10T00:37:42;25.30;;;14.80;;
27893;SDS011;15240;50.812;4.792;2023-05-10T00:40:08;27.00;;;13.73;;
27893;SDS011;15240;50.812;4.792;2023-05-10T00:42:35;24.50;;;14.37;;
27893;SDS011;15240;50.812;4.792;2023-05-10T00:45:01;25.57;;;13.40;;
27893;SDS011;15240;50.812;4.792;2023-05-10T00:47:28;26.50;;;13.03;;
27893;SDS011;15240;50.812;4.792;2023-05-10T00:49:54;25.73;;;13.30;;
27893;SDS011;15240;50.812;4.792;2023-05-10T00:52:24;23.87;;;13.03;;
27893;SDS011;15240;50.812;4.792;2023-05-10T00:54:51;21.53;;;12.50;;
27893;SDS011;15240;50.812;4.792;2023-05-10T00:57:18;23.43;;;13.03;;
27893;SDS011;15240;50.812;4.792;2023-05-10T00:59:44;23.00;;;12.47;;
27893;SDS011;15240;50.812;4.792;2023-05-10T01:02:10;26.53;;;12.37;;
27893;SDS011;15240;50.812;4.792;2023-05-10T01:04:36;25.10;;;13.20;;
27893;SDS011;15240;50.812;4.792;2023-05-10T01:07:03;24.17;;;12.83;;
27893;SDS011;15240;50.812;4.792;2023-05-10T01:09:29;23.77;;;12.50;;
27893;SDS011;15240;50.812;4.792;2023-05-10T01:11:55;25.20;;;13.13;;
27893;SDS011;15240;50.812;4.792;2023-05-10T01:14:22;25.03;;;13.53;;
27893;SDS011;15240;50.812;4.792;2023-05-10T01:16:48;22.70;;;12.67;;
27893;SDS011;15240;50.812;4.792;2023-05-10T01:19:28;21.23;;;12.87;;
27893;SDS011;15240;50.812;4.792;2023-05-10T01:37:22;28.87;;;13.73;;
27893;SDS011;15240;50.812;4.792;2023-05-10T01:39:53;31.03;;;15.07;;
27893;SDS011;15240;50.812;4.792;2023-05-10T01:42:21;27.20;;;14.90;;
27893;SDS011;15240;50.812;4.792;2023-05-10T01:47:25;28.80;;;15.10;;
27893;SDS011;15240;50.812;4.792;2023-05-10T01:49:56;31.93;;;14.80;;
27893;SDS011;15240;50.812;4.792;2023-05-10T01:52:36;28.67;;;15.43;;
27893;SDS011;15240;50.812;4.792;2023-05-10T01:55:08;33.07;;;15.10;;
27893;SDS011;15240;50.812;4.792;2023-05-10T01:57:35;32.73;;;16.30;;
27893;SDS011;15240;50.812;4.792;2023-05-10T02:00:04;29.80;;;15.27;;
27893;SDS011;15240;50.812;4.792;2023-05-10T02:02:33;31.10;;;16.73;;
27893;SDS011;15240;50.812;4.792;2023-05-10T02:05:01;26.97;;;16.30;;
27893;SDS011;15240;50.812;4.792;2023-05-10T02:07:29;31.10;;;16.90;;
27893;SDS011;15240;50.812;4.792;2023-05-10T02:09:56;33.53;;;16.60;;
27893;SDS011;15240;50.812;4.792;2023-05-10T02:12:22;31.40;;;16.90;;
27893;SDS011;15240;50.812;4.792;2023-05-10T02:14:49;34.13;;;17.57;;
27893;SDS011;15240;50.812;4.792;2023-05-10T02:17:16;30.70;;;16.27;;
27893;SDS011;15240;50.812;4.792;2023-05-10T02:19:43;34.90;;;16.80;;
27893;SDS011;15240;50.812;4.792;2023-05-10T02:22:10;36.40;;;17.83;;
27893;SDS011;15240;50.812;4.792;2023-05-10T02:24:37;35.13;;;17.57;;
27893;SDS011;15240;50.812;4.792;2023-05-10T02:27:04;36.37;;;17.87;;
27893;SDS011;15240;50.812;4.792;2023-05-10T02:29:31;34.57;;;17.77;;
27893;SDS011;15240;50.812;4.792;2023-05-10T02:31:58;35.47;;;18.00;;
27893;SDS011;15240;50.812;4.792;2023-05-10T02:34:25;35.20;;;17.77;;
27893;SDS011;15240;50.812;4.792;2023-05-10T02:36:52;34.77;;;17.73;;
27893;SDS011;15240;50.812;4.792;2023-05-10T02:39:19;40.27;;;18.53;;
27893;SDS011;15240;50.812;4.792;2023-05-10T02:41:45;38.90;;;18.43;;
27893;SDS011;15240;50.812;4.792;2023-05-10T02:44:12;36.93;;;17.47;;
27893;SDS011;15240;50.812;4.792;2023-05-10T02:46:40;32.53;;;17.57;;
27893;SDS011;15240;50.812;4.792;2023-05-10T02:49:06;35.07;;;17.97;;
27893;SDS011;15240;50.812;4.792;2023-05-10T02:51:34;36.93;;;18.33;;
27893;SDS011;15240;50.812;4.792;2023-05-10T02:54:03;31.03;;;18.00;;
27893;SDS011;15240;50.812;4.792;2023-05-10T02:56:33;33.13;;;17.20;;
27893;SDS011;15240;50.812;4.792;2023-05-10T02:59:00;31.57;;;17.47;;
27893;SDS011;15240;50.812;4.792;2023-05-10T03:01:26;32.40;;;17.53;;
27893;SDS011;15240;50.812;4.792;2023-05-10T03:03:52;34.37;;;18.33;;
27893;SDS011;15240;50.812;4.792;2023-05-10T03:06:18;38.27;;;18.67;;
27893;SDS011;15240;50.812;4.792;2023-05-10T03:08:44;34.10;;;17.40;;
27893;SDS011;15240;50.812;4.792;2023-05-10T03:16:29;33.93;;;17.70;;
27893;SDS011;15240;50.812;4.792;2023-05-10T03:19:13;30.10;;;16.77;;
27893;SDS011;15240;50.812;4.792;2023-05-10T03:21:42;32.20;;;17.53;;
27893;SDS011;15240;50.812;4.792;2023-05-10T03:24:10;37.27;;;18.43;;
27893;SDS011;15240;50.812;4.792;2023-05-10T03:26:40;33.30;;;17.30;;
27893;SDS011;15240;50.812;4.792;2023-05-10T03:29:08;32.80;;;17.57;;
27893;SDS011;15240;50.812;4.792;2023-05-10T03:31:34;35.60;;;18.30;;
27893;SDS011;15240;50.812;4.792;2023-05-10T03:34:00;34.13;;;18.87;;
27893;SDS011;15240;50.812;4.792;2023-05-10T03:36:27;32.40;;;17.40;;
27893;SDS011;15240;50.812;4.792;2023-05-10T03:38:53;33.17;;;17.53;;
27893;SDS011;15240;50.812;4.792;2023-05-10T03:41:19;32.00;;;18.10;;
27893;SDS011;15240;50.812;4.792;2023-05-10T03:43:46;33.10;;;18.20;;
27893;SDS011;15240;50.812;4.792;2023-05-10T03:46:12;34.77;;;18.57;;
27893;SDS011;15240;50.812;4.792;2023-05-10T03:48:38;32.60;;;17.30;;
27893;SDS011;15240;50.812;4.792;2023-05-10T03:51:04;36.20;;;19.00;;
27893;SDS011;15240;50.812;4.792;2023-05-10T03:53:31;30.87;;;17.83;;
27893;SDS011;15240;50.812;4.792;2023-05-10T03:55:57;33.67;;;18.37;;
27893;SDS011;15240;50.812;4.792;2023-05-10T03:58:23;34.27;;;18.50;;
27893;SDS011;15240;50.812;4.792;2023-05-10T04:00:50;34.73;;;17.23;;
27893;SDS011;15240;50.812;4.792;2023-05-10T04:03:16;33.90;;;18.67;;
27893;SDS011;15240;50.812;4.792;2023-05-10T04:05:43;36.13;;;18.23;;
27893;SDS011;15240;50.812;4.792;2023-05-10T04:08:09;36.00;;;19.17;;
27893;SDS011;15240;50.812;4.792;2023-05-10T04:10:35;34.80;;;19.20;;
27893;SDS011;15240;50.812;4.792;2023-05-10T04:13:01;35.13;;;19.30;;
27893;SDS011;15240;50.812;4.792;2023-05-10T04:15:27;34.27;;;18.27;;
27893;SDS011;15240;50.812;4.792;2023-05-10T04:17:53;39.77;;;19.03;;
27893;SDS011;15240;50.812;4.792;2023-05-10T04:20:20;32.57;;;18.80;;
27893;SDS011;15240;50.812;4.792;2023-05-10T04:22:46;34.17;;;17.93;;
27893;SDS011;15240;50.812;4.792;2023-05-10T04:25:12;35.37;;;17.87;;
27893;SDS011;15240;50.812;4.792;2023-05-10T04:27:38;37.23;;;18.00;;
27893;SDS011;15240;50.812;4.792;2023-05-10T04:30:04;34.57;;;17.17;;
27893;SDS011;15240;50.812;4.792;2023-05-10T04:32:30;31.73;;;16.17;;
27893;SDS011;15240;50.812;4.792;2023-05-10T04:34:56;29.97;;;16.77;;
27893;SDS011;15240;50.812;4.792;2023-05-10T04:37:22;33.43;;;17.23;;
27893;SDS011;15240;50.812;4.792;2023-05-10T04:39:48;31.33;;;16.03;;
27893;SDS011;15240;50.812;4.792;2023-05-10T04:42:15;30.27;;;15.57;;
27893;SDS011;15240;50.812;4.792;2023-05-10T04:44:41;30.67;;;16.67;;
27893;SDS011;15240;50.812;4.792;2023-05-10T04:47:08;33.07;;;16.70;;
27893;SDS011;15240;50.812;4.792;2023-05-10T04:49:34;31.83;;;16.63;;
27893;SDS011;15240;50.812;4.792;2023-05-10T04:52:00;28.97;;;14.87;;
27893;SDS011;15240;50.812;4.792;2023-05-10T04:54:26;29.97;;;15.97;;
27893;SDS011;15240;50.812;4.792;2023-05-10T04:56:52;29.27;;;15.33;;
27893;SDS011;15240;50.812;4.792;2023-05-10T04:59:18;30.60;;;15.90;;
27893;SDS011;15240;50.812;4.792;2023-05-10T05:01:44;30.67;;;16.90;;
27893;SDS011;15240;50.812;4.792;2023-05-10T05:04:10;30.43;;;15.80;;
27893;SDS011;15240;50.812;4.792;2023-05-10T05:06:36;28.80;;;16.30;;
27893;SDS011;15240;50.812;4.792;2023-05-10T05:09:02;31.33;;;17.07;;
27893;SDS011;15240;50.812;4.792;2023-05-10T05:11:28;34.40;;;17.87;;
27893;SDS011;15240;50.812;4.792;2023-05-10T05:13:54;35.50;;;18.70;;
27893;SDS011;15240;50.812;4.792;2023-05-10T05:16:21;35.20;;;18.90;;
27893;SDS011;15240;50.812;4.792;2023-05-10T05:18:47;40.33;;;19.57;;
27893;SDS011;15240;50.812;4.792;2023-05-10T05:21:13;36.50;;;19.40;;
27893;SDS011;15240;50.812;4.792;2023-05-10T05:23:40;36.73;;;20.00;;
27893;SDS011;15240;50.812;4.792;2023-05-10T05:26:06;38.47;;;21.03;;
27893;SDS011;15240;50.812;4.792;2023-05-10T05:28:33;37.07;;;20.17;;
27893;SDS011;15240;50.812;4.792;2023-05-10T05:31:02;38.73;;;20.53;;
27893;SDS011;15240;50.812;4.792;2023-05-10T05:33:28;38.97;;;21.70;;
27893;SDS011;15240;50.812;4.792;2023-05-10T05:35:54;38.77;;;21.43;;
27893;SDS011;15240;50.812;4.792;2023-05-10T05:38:20;40.47;;;22.10;;
27893;SDS011;15240;50.812;4.792;2023-05-10T05:40:46;39.63;;;22.13;;
27893;SDS011;15240;50.812;4.792;2023-05-10T05:43:13;46.63;;;24.40;;
27893;SDS011;15240;50.812;4.792;2023-05-10T05:45:39;42.50;;;22.90;;
27893;SDS011;15240;50.812;4.792;2023-05-10T05:48:05;39.17;;;21.20;;
27893;SDS011;15240;50.812;4.792;2023-05-10T05:50:31;39.13;;;22.77;;
27893;SDS011;15240;50.812;4.792;2023-05-10T05:52:57;41.00;;;21.57;;
27893;SDS011;15240;50.812;4.792;2023-05-10T05:55:23;43.83;;;22.30;;
27893;SDS011;15240;50.812;4.792;2023-05-10T05:57:51;41.67;;;22.27;;
27893;SDS011;15240;50.812;4.792;2023-05-10T06:00:17;43.03;;;22.77;;
27893;SDS011;15240;50.812;4.792;2023-05-10T06:02:43;39.53;;;22.53;;
27893;SDS011;15240;50.812;4.792;2023-05-10T06:05:09;40.37;;;21.70;;
27893;SDS011;15240;50.812;4.792;2023-05-10T06:07:35;40.43;;;22.07;;
27893;SDS011;15240;50.812;4.792;2023-05-10T06:10:02;40.50;;;23.07;;
27893;SDS011;15240;50.812;4.792;2023-05-10T06:12:28;41.57;;;22.70;;
27893;SDS011;15240;50.812;4.792;2023-05-10T06:14:54;43.73;;;22.57;;
27893;SDS011;15240;50.812;4.792;2023-05-10T06:17:20;39.87;;;23.90;;
27893;SDS011;15240;50.812;4.792;2023-05-10T06:19:46;46.73;;;24.50;;
27893;SDS011;15240;50.812;4.792;2023-05-10T06:22:12;44.10;;;23.43;;
27893;SDS011;15240;50.812;4.792;2023-05-10T06:24:39;43.63;;;23.97;;
27893;SDS011;15240;50.812;4.792;2023-05-10T06:27:05;44.63;;;23.63;;
27893;SDS011;15240;50.812;4.792;2023-05-10T06:29:32;38.50;;;21.37;;
27893;SDS011;15240;50.812;4.792;2023-05-10T06:31:58;37.43;;;18.33;;
27893;SDS011;15240;50.812;4.792;2023-05-10T06:34:24;13.87;;;7.87;;
27893;SDS011;15240;50.812;4.792;2023-05-10T06:36:50;7.13;;;3.60;;
27893;SDS011;15240;50.812;4.792;2023-05-10T06:39:16;4.53;;;2.53;;
27893;SDS011;15240;50.812;4.792;2023-05-10T06:41:42;3.17;;;1.90;;
27893;SDS011;15240;50.812;4.792;2023-05-10T06:44:08;2.60;;;1.60;;
27893;SDS011;15240;50.812;4.792;2023-05-10T06:46:35;2.20;;;1.50;;
27893;SDS011;15240;50.812;4.792;2023-05-10T06:49:01;2.20;;;1.50;;
27893;SDS011;15240;50.812;4.792;2023-05-10T06:51:27;4.63;;;1.60;;
27893;SDS011;15240;50.812;4.792;2023-05-10T06:53:53;3.30;;;1.63;;
27893;SDS011;15240;50.812;4.792;2023-05-10T06:56:19;1.93;;;1.47;;
27893;SDS011;15240;50.812;4.792;2023-05-10T06:58:46;3.17;;;1.80;;
27893;SDS011;15240;50.812;4.792;2023-05-10T07:01:12;4.27;;;1.70;;
27893;SDS011;15240;50.812;4.792;2023-05-10T07:03:38;3.53;;;2.20;;
27893;SDS011;15240;50.812;4.792;2023-05-10T07:06:05;5.67;;;2.33;;
27893;SDS011;15240;50.812;4.792;2023-05-10T07:08:33;3.43;;;2.40;;
27893;SDS011;15240;50.812;4.792;2023-05-10T07:11:03;6.43;;;2.60;;
27893;SDS011;15240;50.812;4.792;2023-05-10T07:13:30;3.30;;;2.60;;
27893;SDS011;15240;50.812;4.792;2023-05-10T07:15:56;5.17;;;2.60;;
27893;SDS011;15240;50.812;4.792;2023-05-10T07:18:23;5.97;;;2.93;;
27893;SDS011;15240;50.812;4.792;2023-05-10T07:20:49;5.10;;;2.30;;
27893;SDS011;15240;50.812;4.792;2023-05-10T07:23:15;6.13;;;2.63;;
27893;SDS011;15240;50.812;4.792;2023-05-10T07:25:44;5.83;;;2.80;;
27893;SDS011;15240;50.812;4.792;2023-05-10T07:28:10;4.77;;;2.70;;
27893;SDS011;15240;50.812;4.792;2023-05-10T07:30:37;4.37;;;2.87;;
27893;SDS011;15240;50.812;4.792;2023-05-10T07:33:03;4.83;;;2.90;;
27893;SDS011;15240;50.812;4.792;2023-05-10T07:35:29;7.50;;;3.00;;
27893;SDS011;15240;50.812;4.792;2023-05-10T07:37:55;4.70;;;2.90;;
27893;SDS011;15240;50.812;4.792;2023-05-10T07:40:22;5.33;;;3.10;;
27893;SDS011;15240;50.812;4.792;2023-05-10T07:42:48;6.60;;;3.10;;
27893;SDS011;15240;50.812;4.792;2023-05-10T07:45:14;4.40;;;2.90;;
27893;SDS011;15240;50.812;4.792;2023-05-10T07:47:40;6.67;;;2.80;;
27893;SDS011;15240;50.812;4.792;2023-05-10T07:50:06;4.57;;;2.53;;
27893;SDS011;15240;50.812;4.792;2023-05-10T07:52:32;4.50;;;2.90;;
27893;SDS011;15240;50.812;4.792;2023-05-10T07:54:58;5.53;;;2.93;;
27893;SDS011;15240;50.812;4.792;2023-05-10T07:57:25;5.67;;;3.07;;
27893;SDS011;15240;50.812;4.792;2023-05-10T07:59:51;7.03;;;2.97;;
27893;SDS011;15240;50.812;4.792;2023-05-10T08:02:17;4.93;;;3.60;;
27893;SDS011;15240;50.812;4.792;2023-05-10T08:04:43;4.53;;;3.10;;
27893;SDS011;15240;50.812;4.792;2023-05-10T08:07:09;6.50;;;3.23;;
27893;SDS011;15240;50.812;4.792;2023-05-10T08:09:36;5.93;;;3.87;;
27893;SDS011;15240;50.812;4.792;2023-05-10T08:12:02;9.30;;;4.53;;
27893;SDS011;15240;50.812;4.792;2023-05-10T08:14:28;8.50;;;4.53;;
27893;SDS011;15240;50.812;4.792;2023-05-10T08:16:54;7.73;;;5.30;;
27893;SDS011;15240;50.812;4.792;2023-05-10T08:19:21;9.83;;;5.43;;
27893;SDS011;15240;50.812;4.792;2023-05-10T08:21:47;13.03;;;5.63;;
27893;SDS011;15240;50.812;4.792;2023-05-10T08:24:13;8.73;;;4.97;;
27893;SDS011;15240;50.812;4.792;2023-05-10T08:26:39;10.43;;;5.00;;
27893;SDS011;15240;50.812;4.792;2023-05-10T08:29:06;9.53;;;5.40;;
27893;SDS011;15240;50.812;4.792;2023-05-10T08:31:32;8.10;;;5.30;;
27893;SDS011;15240;50.812;4.792;2023-05-10T08:33:58;10.47;;;5.30;;
27893;SDS011;15240;50.812;4.792;2023-05-10T08:36:25;11.40;;;5.87;;
27893;SDS011;15240;50.812;4.792;2023-05-10T08:38:51;12.33;;;6.37;;
27893;SDS011;15240;50.812;4.792;2023-05-10T08:41:19;8.83;;;6.03;;
27893;SDS011;15240;50.812;4.792;2023-05-10T08:43:46;10.00;;;5.90;;
27893;SDS011;15240;50.812;4.792;2023-05-10T08:48:39;13.10;;;5.97;;
27893;SDS011;15240;50.812;4.792;2023-05-10T08:51:06;8.30;;;5.87;;
27893;SDS011;15240;50.812;4.792;2023-05-10T08:53:33;10.00;;;5.77;;
27893;SDS011;15240;50.812;4.792;2023-05-10T08:56:01;9.47;;;5.80;;
27893;SDS011;15240;50.812;4.792;2023-05-10T08:58:28;12.40;;;5.33;;
27893;SDS011;15240;50.812;4.792;2023-05-10T09:00:54;10.50;;;5.93;;
27893;SDS011;15240;50.812;4.792;2023-05-10T09:03:20;9.03;;;5.57;;
27893;SDS011;15240;50.812;4.792;2023-05-10T09:05:46;8.60;;;5.60;;
27893;SDS011;15240;50.812;4.792;2023-05-10T09:08:13;8.00;;;4.93;;
27893;SDS011;15240;50.812;4.792;2023-05-10T09:10:41;7.63;;;5.27;;
27893;SDS011;15240;50.812;4.792;2023-05-10T09:13:08;7.30;;;5.47;;
27893;SDS011;15240;50.812;4.792;2023-05-10T09:15:35;8.23;;;5.53;;
27893;SDS011;15240;50.812;4.792;2023-05-10T09:18:01;8.83;;;5.00;;
27893;SDS011;15240;50.812;4.792;2023-05-10T09:20:27;7.43;;;5.10;;
27893;SDS011;15240;50.812;4.792;2023-05-10T09:22:54;6.13;;;4.60;;
27893;SDS011;15240;50.812;4.792;2023-05-10T09:25:20;9.27;;;5.03;;
27893;SDS011;15240;50.812;4.792;2023-05-10T09:27:47;6.63;;;4.70;;
27893;SDS011;15240;50.812;4.792;2023-05-10T09:30:17;7.40;;;4.50;;
27893;SDS011;15240;50.812;4.792;2023-05-10T09:32:48;6.97;;;3.70;;
27893;SDS011;15240;50.812;4.792;2023-05-10T09:35:16;5.03;;;3.20;;
27893;SDS011;15240;50.812;4.792;2023-05-10T09:37:43;6.37;;;3.17;;
27893;SDS011;15240;50.812;4.792;2023-05-10T09:40:11;5.27;;;3.67;;
27893;SDS011;15240;50.812;4.792;2023-05-10T09:42:38;6.17;;;3.77;;
27893;SDS011;15240;50.812;4.792;2023-05-10T09:45:04;5.63;;;3.40;;
27893;SDS011;15240;50.812;4.792;2023-05-10T09:47:33;5.50;;;3.70;;
27893;SDS011;15240;50.812;4.792;2023-05-10T09:50:00;4.57;;;3.40;;
27893;SDS011;15240;50.812;4.792;2023-05-10T09:52:30;4.73;;;3.20;;
27893;SDS011;15240;50.812;4.792;2023-05-10T09:54:56;3.80;;;3.13;;
27893;SDS011;15240;50.812;4.792;2023-05-10T09:57:23;4.73;;;3.40;;
27893;SDS011;15240;50.812;4.792;2023-05-10T09:59:50;4.83;;;2.93;;
27893;SDS011;15240;50.812;4.792;2023-05-10T10:02:16;4.40;;;2.70;;
27893;SDS011;15240;50.812;4.792;2023-05-10T10:04:42;5.40;;;2.50;;
27893;SDS011;15240;50.812;4.792;2023-05-10T10:07:09;4.17;;;2.33;;
27893;SDS011;15240;50.812;4.792;2023-05-10T10:09:35;4.77;;;1.93;;
27893;SDS011;15240;50.812;4.792;2023-05-10T10:12:02;3.87;;;1.67;;
27893;SDS011;15240;50.812;4.792;2023-05-10T10:14:29;2.70;;;1.80;;
27893;SDS011;15240;50.812;4.792;2023-05-10T10:16:55;2.50;;;1.77;;
27893;SDS011;15240;50.812;4.792;2023-05-10T10:19:25;4.23;;;2.07;;
27893;SDS011;15240;50.812;4.792;2023-05-10T10:21:51;2.47;;;1.70;;
27893;SDS011;15240;50.812;4.792;2023-05-10T10:24:17;2.50;;;1.50;;
27893;SDS011;15240;50.812;4.792;2023-05-10T10:26:43;4.47;;;1.70;;
27893;SDS011;15240;50.812;4.792;2023-05-10T10:29:16;2.50;;;1.60;;
27893;SDS011;15240;50.812;4.792;2023-05-10T10:31:53;2.73;;;1.60;;
27893;SDS011;15240;50.812;4.792;2023-05-10T10:34:23;3.07;;;1.60;;
27893;SDS011;15240;50.812;4.792;2023-05-10T10:36:51;2.53;;;1.87;;
27893;SDS011;15240;50.812;4.792;2023-05-10T10:39:18;2.00;;;1.60;;
27893;SDS011;15240;50.812;4.792;2023-05-10T10:41:55;2.53;;;1.70;;
27893;SDS011;15240;50.812;4.792;2023-05-10T10:49:42;3.07;;;1.50;;
27893;SDS011;15240;50.812;4.792;2023-05-10T10:52:15;2.30;;;1.40;;
27893;SDS011;15240;50.812;4.792;2023-05-10T10:57:20;2.03;;;1.33;;
27893;SDS011;15240;50.812;4.792;2023-05-10T10:59:46;1.80;;;1.50;;
27893;SDS011;15240;50.812;4.792;2023-05-10T11:04:57;6.20;;;1.50;;
27893;SDS011;15240;50.812;4.792;2023-05-10T11:07:24;2.53;;;1.57;;
27893;SDS011;15240;50.812;4.792;2023-05-10T11:09:50;3.27;;;1.40;;
27893;SDS011;15240;50.812;4.792;2023-05-10T11:12:16;1.27;;;1.17;;
27893;SDS011;15240;50.812;4.792;2023-05-10T11:14:49;2.03;;;1.40;;
27893;SDS011;15240;50.812;4.792;2023-05-10T11:17:26;2.07;;;1.30;;
27893;SDS011;15240;50.812;4.792;2023-05-10T11:20:09;1.43;;;1.00;;
27893;SDS011;15240;50.812;4.792;2023-05-10T11:22:51;1.97;;;1.20;;
27893;SDS011;15240;50.812;4.792;2023-05-10T11:25:18;1.20;;;1.00;;
27893;SDS011;15240;50.812;4.792;2023-05-10T11:27:44;1.30;;;1.07;;
27893;SDS011;15240;50.812;4.792;2023-05-10T11:30:23;1.57;;;1.10;;
27893;SDS011;15240;50.812;4.792;2023-05-10T11:33:18;1.97;;;1.10;;
27893;SDS011;15240;50.812;4.792;2023-05-10T11:35:48;3.37;;;1.10;;
27893;SDS011;15240;50.812;4.792;2023-05-10T11:38:15;5.37;;;1.53;;
27893;SDS011;15240;50.812;4.792;2023-05-10T11:40:41;1.23;;;1.13;;
27893;SDS011;15240;50.812;4.792;2023-05-10T11:43:08;1.53;;;0.93;;
27893;SDS011;15240;50.812;4.792;2023-05-10T11:45:36;2.13;;;1.00;;
27893;SDS011;15240;50.812;4.792;2023-05-10T11:48:02;1.33;;;1.23;;
27893;SDS011;15240;50.812;4.792;2023-05-10T11:50:28;1.33;;;1.00;;
27893;SDS011;15240;50.812;4.792;2023-05-10T11:52:55;1.70;;;1.03;;
27893;SDS011;15240;50.812;4.792;2023-05-10T11:58:33;1.73;;;1.20;;
27893;SDS011;15240;50.812;4.792;2023-05-10T12:01:00;2.17;;;1.40;;
27893;SDS011;15240;50.812;4.792;2023-05-10T12:03:29;2.13;;;1.50;;
27893;SDS011;15240;50.812;4.792;2023-05-10T12:05:56;1.57;;;1.30;;
27893;SDS011;15240;50.812;4.792;2023-05-10T12:08:26;1.60;;;1.40;;
27893;SDS011;15240;50.812;4.792;2023-05-10T12:10:53;1.87;;;1.43;;
27893;SDS011;15240;50.812;4.792;2023-05-10T12:13:20;1.40;;;1.30;;
27893;SDS011;15240;50.812;4.792;2023-05-10T12:15:46;1.47;;;1.30;;
27893;SDS011;15240;50.812;4.792;2023-05-10T12:18:13;1.40;;;1.20;;
27893;SDS011;15240;50.812;4.792;2023-05-10T12:20:40;1.50;;;1.00;;
27893;SDS011;15240;50.812;4.792;2023-05-10T12:23:08;1.83;;;1.27;;
27893;SDS011;15240;50.812;4.792;2023-05-10T12:25:35;1.37;;;1.23;;
27893;SDS011;15240;50.812;4.792;2023-05-10T12:28:08;3.33;;;1.30;;
27893;SDS011;15240;50.812;4.792;2023-05-10T12:30:35;2.07;;;1.47;;
27893;SDS011;15240;50.812;4.792;2023-05-10T12:33:08;2.80;;;1.53;;
27893;SDS011;15240;50.812;4.792;2023-05-10T12:35:43;3.70;;;1.60;;
27893;SDS011;15240;50.812;4.792;2023-05-10T12:38:26;1.80;;;1.50;;
27893;SDS011;15240;50.812;4.792;2023-05-10T12:40:54;1.77;;;1.40;;
27893;SDS011;15240;50.812;4.792;2023-05-10T12:43:20;3.23;;;1.80;;
27893;SDS011;15240;50.812;4.792;2023-05-10T12:45:47;2.53;;;1.50;;
27893;SDS011;15240;50.812;4.792;2023-05-10T12:48:14;3.17;;;1.90;;
27893;SDS011;15240;50.812;4.792;2023-05-10T12:50:40;4.43;;;1.90;;
27893;SDS011;15240;50.812;4.792;2023-05-10T12:53:06;2.47;;;1.90;;
27893;SDS011;15240;50.812;4.792;2023-05-10T12:55:33;2.13;;;1.80;;
27893;SDS011;15240;50.812;4.792;2023-05-10T12:57:59;1.93;;;1.50;;
27893;SDS011;15240;50.812;4.792;2023-05-10T13:00:25;3.37;;;1.50;;
27893;SDS011;15240;50.812;4.792;2023-05-10T13:02:51;1.93;;;1.50;;
27893;SDS011;15240;50.812;4.792;2023-05-10T13:05:18;2.50;;;1.80;;
27893;SDS011;15240;50.812;4.792;2023-05-10T13:07:44;3.17;;;1.80;;
27893;SDS011;15240;50.812;4.792;2023-05-10T13:10:10;2.80;;;1.70;;
27893;SDS011;15240;50.812;4.792;2023-05-10T13:12:36;2.70;;;1.57;;
27893;SDS011;15240;50.812;4.792;2023-05-10T13:15:02;3.80;;;1.80;;
27893;SDS011;15240;50.812;4.792;2023-05-10T13:17:29;3.93;;;2.10;;
27893;SDS011;15240;50.812;4.792;2023-05-10T13:19:55;2.70;;;1.73;;
27893;SDS011;15240;50.812;4.792;2023-05-10T13:22:21;2.13;;;1.77;;
27893;SDS011;15240;50.812;4.792;2023-05-10T13:24:47;2.07;;;1.80;;
27893;SDS011;15240;50.812;4.792;2023-05-10T13:27:13;2.10;;;1.80;;
27893;SDS011;15240;50.812;4.792;2023-05-10T13:29:39;4.37;;;1.80;;
27893;SDS011;15240;50.812;4.792;2023-05-10T13:32:05;2.20;;;1.83;;
27893;SDS011;15240;50.812;4.792;2023-05-10T13:34:32;4.50;;;1.90;;
27893;SDS011;15240;50.812;4.792;2023-05-10T13:37:00;2.57;;;2.10;;
27893;SDS011;15240;50.812;4.792;2023-05-10T13:39:26;2.50;;;1.97;;
27893;SDS011;15240;50.812;4.792;2023-05-10T13:41:54;3.00;;;2.43;;
27893;SDS011;15240;50.812;4.792;2023-05-10T13:44:21;2.57;;;1.90;;
27893;SDS011;15240;50.812;4.792;2023-05-10T13:46:47;2.80;;;2.10;;
27893;SDS011;15240;50.812;4.792;2023-05-10T13:49:13;2.70;;;2.20;;
27893;SDS011;15240;50.812;4.792;2023-05-10T13:51:39;5.13;;;2.30;;
27893;SDS011;15240;50.812;4.792;2023-05-10T13:54:06;3.70;;;2.37;;
27893;SDS011;15240;50.812;4.792;2023-05-10T13:56:32;3.33;;;2.47;;
27893;SDS011;15240;50.812;4.792;2023-05-10T13:58:58;4.87;;;2.80;;
27893;SDS011;15240;50.812;4.792;2023-05-10T14:01:24;5.40;;;3.57;;
27893;SDS011;15240;50.812;4.792;2023-05-10T14:03:59;6.43;;;3.60;;
27893;SDS011;15240;50.812;4.792;2023-05-10T14:06:25;6.77;;;3.57;;
27893;SDS011;15240;50.812;4.792;2023-05-10T14:08:52;5.23;;;3.50;;
27893;SDS011;15240;50.812;4.792;2023-05-10T14:11:18;5.73;;;3.73;;
27893;SDS011;15240;50.812;4.792;2023-05-10T14:13:45;5.83;;;3.87;;
27893;SDS011;15240;50.812;4.792;2023-05-10T14:16:11;5.67;;;4.20;;
27893;SDS011;15240;50.812;4.792;2023-05-10T14:18:39;6.73;;;4.80;;
27893;SDS011;15240;50.812;4.792;2023-05-10T14:21:05;9.50;;;4.90;;
27893;SDS011;15240;50.812;4.792;2023-05-10T14:23:31;5.67;;;4.40;;
27893;SDS011;15240;50.812;4.792;2023-05-10T14:25:57;6.37;;;4.90;;
27893;SDS011;15240;50.812;4.792;2023-05-10T14:28:25;5.97;;;4.43;;
27893;SDS011;15240;50.812;4.792;2023-05-10T14:30:52;6.00;;;4.20;;
27893;SDS011;15240;50.812;4.792;2023-05-10T14:33:18;5.10;;;4.10;;
27893;SDS011;15240;50.812;4.792;2023-05-10T14:35:45;5.80;;;4.47;;
27893;SDS011;15240;50.812;4.792;2023-05-10T14:38:11;6.50;;;4.83;;
27893;SDS011;15240;50.812;4.792;2023-05-10T14:40:38;5.60;;;4.30;;
27893;SDS011;15240;50.812;4.792;2023-05-10T14:43:04;7.13;;;4.43;;
27893;SDS011;15240;50.812;4.792;2023-05-10T14:45:30;6.57;;;4.93;;
27893;SDS011;15240;50.812;4.792;2023-05-10T14:47:56;6.93;;;5.00;;
27893;SDS011;15240;50.812;4.792;2023-05-10T14:50:23;8.20;;;6.03;;
27893;SDS011;15240;50.812;4.792;2023-05-10T14:52:49;7.60;;;5.67;;
27893;SDS011;15240;50.812;4.792;2023-05-10T14:55:15;9.27;;;6.13;;
27893;SDS011;15240;50.812;4.792;2023-05-10T14:57:42;8.37;;;6.07;;
27893;SDS011;15240;50.812;4.792;2023-05-10T15:00:10;11.27;;;6.67;;
27893;SDS011;15240;50.812;4.792;2023-05-10T15:02:36;9.63;;;6.37;;
27893;SDS011;15240;50.812;4.792;2023-05-10T15:05:02;10.82;;;7.35;;
27893;SDS011;15240;50.812;4.792;2023-05-10T15:07:28;11.60;;;7.40;;
27893;SDS011;15240;50.812;4.792;2023-05-10T15:09:56;11.10;;;7.80;;
27893;SDS011;15240;50.812;4.792;2023-05-10T15:12:22;12.37;;;7.90;;
27893;SDS011;15240;50.812;4.792;2023-05-10T15:14:48;12.10;;;7.50;;